Time;durP1;ratioP1;P1;durP2;ratioP2;P2;SDS_P1;SDS_P2;PMS_P1;PMS_P2;Temp;Humidity;BMP_temperature;BMP_pressure;BME280_temperature;BME280_humidity;BME280_pressure;Samples;Min_cycle;Max_cycle;Signal;HPM_P1;HPM_P2
2023/10/27 00:01:41;;;;;;;15.70;7.22;;;10.00;99.90;;;;;;5070319;28;20044;-59
2023/10/27 00:04:07;;;;;;;19.67;7.90;;;10.00;99.90;;;;;;5065115;28;20483;-59
2023/10/27 00:06:33;;;;;;;19.83;7.38;;;10.00;99.90;;;;;;5065894;28;20399;-59
2023/10/27 00:08:59;;;;;;;19.55;7.07;;;9.90;99.90;;;;;;5069860;28;20025;-59
2023/10/27 00:11:25;;;;;;;15.23;6.07;;;9.80;99.90;;;;;;5061587;28;20033;-58
2023/10/27 00:13:51;;;;;;;18.30;6.38;;;9.80;99.90;;;;;;5069551;28;20028;-59
2023/10/27 00:16:17;;;;;;;17.75;5.90;;;9.80;99.90;;;;;;5066754;28;20031;-59
2023/10/27 00:18:43;;;;;;;26.20;7.13;;;9.70;99.90;;;;;;5069776;28;20028;-56
2023/10/27 00:21:09;;;;;;;17.60;5.75;;;9.70;99.90;;;;;;5063721;28;20021;-59
2023/10/27 00:23:35;;;;;;;19.38;6.05;;;9.60;99.90;;;;;;5068251;28;20430;-59
2023/10/27 00:26:01;;;;;;;29.55;5.40;;;9.60;99.90;;;;;;5059220;28;20029;-57
2023/10/27 00:28:27;;;;;;;15.95;5.97;;;9.60;99.90;;;;;;5068159;28;20514;-58
2023/10/27 00:30:53;;;;;;;17.85;6.40;;;9.60;99.90;;;;;;5062783;28;20037;-57
2023/10/27 00:33:18;;;;;;;17.80;6.28;;;9.60;99.90;;;;;;5064569;28;20039;-56
2023/10/27 00:35:44;;;;;;;15.15;5.28;;;9.60;99.90;;;;;;5061406;28;20035;-59
2023/10/27 00:38:09;;;;;;;23.20;5.82;;;9.70;99.90;;;;;;5068910;28;20036;-58
2023/10/27 00:40:35;;;;;;;15.73;4.85;;;9.70;99.90;;;;;;5060519;28;20021;-58
2023/10/27 00:43:04;;;;;;;19.50;5.50;;;9.70;99.90;;;;;;5065373;28;20028;-55
2023/10/27 00:45:30;;;;;;;24.02;6.20;;;9.60;99.90;;;;;;5060792;28;20021;-58
2023/10/27 00:47:55;;;;;;;13.30;4.70;;;9.70;99.90;;;;;;5062993;28;20094;-58
2023/10/27 00:50:21;;;;;;;17.35;5.70;;;9.60;99.90;;;;;;5060113;28;20055;-59
2023/10/27 00:52:48;;;;;;;30.45;5.15;;;9.70;99.90;;;;;;5064557;28;20112;-58
2023/10/27 00:55:14;;;;;;;14.18;4.93;;;9.80;99.90;;;;;;5064882;28;20419;-59
2023/10/27 00:57:41;;;;;;;13.77;5.15;;;9.80;99.90;;;;;;5063930;28;20068;-57
2023/10/27 01:00:07;;;;;;;14.93;4.88;;;9.80;99.90;;;;;;5058173;28;20385;-59
2023/10/27 01:02:33;;;;;;;9.32;4.30;;;9.80;99.90;;;;;;5061217;28;20035;-57
2023/10/27 01:04:59;;;;;;;17.08;4.55;;;9.90;99.90;;;;;;5063493;28;20104;-59
2023/10/27 01:07:24;;;;;;;34.30;5.40;;;9.90;99.90;;;;;;5062026;28;20024;-58
2023/10/27 01:09:51;;;;;;;22.75;5.10;;;9.90;99.90;;;;;;5063428;28;20039;-57
2023/10/27 01:12:16;;;;;;;17.45;4.85;;;10.00;99.90;;;;;;5062212;28;20028;-59
2023/10/27 01:14:43;;;;;;;19.35;4.40;;;10.10;99.90;;;;;;5060297;28;20050;-56
2023/10/27 01:17:08;;;;;;;21.13;5.15;;;10.10;99.90;;;;;;5062072;28;20070;-55
2023/10/27 01:19:36;;;;;;;23.85;6.13;;;10.10;99.90;;;;;;5060926;28;20477;-57
2023/10/27 01:22:02;;;;;;;23.23;4.78;;;10.20;99.90;;;;;;5060594;28;20031;-59
2023/10/27 01:24:28;;;;;;;20.10;5.63;;;10.20;99.90;;;;;;5063063;28;20112;-58
2023/10/27 01:26:54;;;;;;;27.92;4.88;;;10.20;99.90;;;;;;5058195;28;20171;-52
2023/10/27 01:29:22;;;;;;;24.10;4.40;;;10.20;99.90;;;;;;5064542;28;20028;-58
2023/10/27 01:31:48;;;;;;;21.17;4.55;;;10.30;99.90;;;;;;5058591;28;20032;-57
2023/10/27 01:34:14;;;;;;;13.40;4.38;;;10.30;99.90;;;;;;5062697;28;20021;-55
2023/10/27 01:36:40;;;;;;;26.65;5.03;;;10.30;99.90;;;;;;5063104;28;20021;-57
2023/10/27 01:39:06;;;;;;;17.75;4.70;;;10.30;99.90;;;;;;5058541;28;20368;-56
2023/10/27 01:41:31;;;;;;;21.80;4.18;;;10.30;99.90;;;;;;5059891;28;20040;-58
2023/10/27 01:43:57;;;;;;;15.43;4.65;;;10.30;99.90;;;;;;5062919;28;20063;-56
2023/10/27 01:46:22;;;;;;;21.92;4.70;;;10.20;99.90;;;;;;5057533;28;20098;-59
2023/10/27 01:48:48;;;;;;;13.32;4.07;;;10.30;99.90;;;;;;5059393;28;20033;-58
2023/10/27 01:51:14;;;;;;;24.30;4.60;;;10.30;99.90;;;;;;5058312;28;20056;-58
2023/10/27 01:53:40;;;;;;;13.70;4.13;;;10.20;99.90;;;;;;5058198;28;20021;-58
2023/10/27 01:56:06;;;;;;;19.88;4.57;;;10.20;99.90;;;;;;5057635;28;20040;-57
2023/10/27 01:58:31;;;;;;;10.48;3.95;;;10.20;99.90;;;;;;5060617;28;20028;-55
2023/10/27 02:00:57;;;;;;;17.40;4.18;;;10.30;99.90;;;;;;5058279;28;20033;-56
2023/10/27 02:03:22;;;;;;;15.40;3.92;;;10.30;99.90;;;;;;5066456;28;20055;-55
2023/10/27 02:05:48;;;;;;;17.98;4.30;;;10.30;99.90;;;;;;5061392;28;20075;-57
2023/10/27 02:08:14;;;;;;;22.75;5.85;;;10.30;99.90;;;;;;5065378;28;20048;-59
2023/10/27 02:10:39;;;;;;;21.73;4.78;;;10.20;99.90;;;;;;5059538;28;20056;-59
2023/10/27 02:13:05;;;;;;;25.98;5.35;;;10.20;99.90;;;;;;5062567;28;20035;-58
2023/10/27 02:15:30;;;;;;;15.07;4.18;;;10.20;99.90;;;;;;5059199;28;20044;-59
2023/10/27 02:17:56;;;;;;;18.13;4.15;;;10.20;99.90;;;;;;5065888;28;20017;-55
2023/10/27 02:20:22;;;;;;;28.45;4.65;;;10.20;99.90;;;;;;5059984;28;20035;-59
2023/10/27 02:22:47;;;;;;;34.67;5.13;;;10.20;99.90;;;;;;5061534;28;20058;-59
2023/10/27 02:25:13;;;;;;;14.80;4.47;;;10.20;99.90;;;;;;5061288;28;20033;-59
2023/10/27 02:27:40;;;;;;;21.30;4.82;;;10.20;99.90;;;;;;5062546;28;20029;-59
2023/10/27 02:30:07;;;;;;;19.38;4.72;;;10.20;99.90;;;;;;5056564;28;20025;-57
2023/10/27 02:32:33;;;;;;;15.80;4.10;;;10.20;99.90;;;;;;5062485;28;20029;-59
2023/10/27 02:34:58;;;;;;;16.73;5.50;;;10.20;99.90;;;;;;5060744;28;20025;-59
2023/10/27 02:37:24;;;;;;;20.88;3.85;;;10.20;99.90;;;;;;5060696;28;20109;-54
2023/10/27 02:39:49;;;;;;;24.80;5.00;;;10.20;99.90;;;;;;5056562;28;20508;-56
2023/10/27 02:42:15;;;;;;;25.33;5.18;;;10.10;99.90;;;;;;5060655;28;20028;-57
2023/10/27 02:44:41;;;;;;;17.45;4.50;;;10.20;99.90;;;;;;5058956;28;20472;-59
2023/10/27 02:47:07;;;;;;;14.93;4.22;;;10.10;99.90;;;;;;5061084;28;20391;-58
2023/10/27 02:49:32;;;;;;;24.08;5.57;;;10.20;99.90;;;;;;5061135;28;20029;-59
2023/10/27 02:51:58;;;;;;;27.10;5.00;;;10.20;99.90;;;;;;5057190;28;20533;-59
2023/10/27 02:54:23;;;;;;;23.35;4.80;;;10.20;99.90;;;;;;5065137;28;20025;-58
2023/10/27 02:56:49;;;;;;;15.32;4.88;;;10.20;99.90;;;;;;5057028;28;20039;-58
2023/10/27 02:59:14;;;;;;;26.40;5.00;;;10.20;99.90;;;;;;5065287;28;20035;-59
2023/10/27 03:01:40;;;;;;;22.38;6.10;;;10.20;99.90;;;;;;5058574;28;20450;-59
2023/10/27 03:04:05;;;;;;;15.65;4.95;;;10.30;99.90;;;;;;5058444;28;20033;-59
2023/10/27 03:06:31;;;;;;;18.77;5.28;;;10.30;99.90;;;;;;5056267;28;20036;-58
2023/10/27 03:08:56;;;;;;;20.42;5.10;;;10.30;99.90;;;;;;5057564;28;20032;-59
2023/10/27 03:11:22;;;;;;;17.05;5.13;;;10.30;99.90;;;;;;5057319;28;20036;-59
2023/10/27 03:13:47;;;;;;;21.50;4.82;;;10.30;99.90;;;;;;5062452;28;20766;-58
2023/10/27 03:16:16;;;;;;;17.05;5.53;;;10.40;99.90;;;;;;5056514;28;20021;-58
2023/10/27 03:18:42;;;;;;;25.58;5.60;;;10.40;99.90;;;;;;5061129;28;20115;-56
2023/10/27 03:21:07;;;;;;;18.80;6.57;;;10.40;99.90;;;;;;5056615;28;20127;-53
2023/10/27 03:23:33;;;;;;;15.35;6.13;;;10.40;99.90;;;;;;5057909;28;20036;-58
2023/10/27 03:25:59;;;;;;;15.18;5.95;;;10.40;99.90;;;;;;5056523;28;20036;-59
2023/10/27 03:28:25;;;;;;;24.60;6.88;;;10.40;99.90;;;;;;5064287;28;20498;-58
2023/10/27 03:30:51;;;;;;;17.92;5.45;;;10.50;99.90;;;;;;5054800;28;20033;-59
2023/10/27 03:33:17;;;;;;;16.13;6.05;;;10.40;99.90;;;;;;5063884;28;20082;-58
2023/10/27 03:35:44;;;;;;;11.38;6.03;;;10.50;99.90;;;;;;5055390;28;20032;-58
2023/10/27 03:38:11;;;;;;;16.50;6.40;;;10.50;99.90;;;;;;5062326;28;20075;-59
2023/10/27 03:40:38;;;;;;;20.27;7.00;;;10.50;99.90;;;;;;5060929;28;20032;-58
2023/10/27 03:43:03;;;;;;;22.35;6.85;;;10.50;99.90;;;;;;5057758;28;20021;-57
2023/10/27 03:45:29;;;;;;;20.38;7.13;;;10.50;99.90;;;;;;5061285;28;20138;-59
2023/10/27 03:47:55;;;;;;;25.65;7.13;;;10.50;99.90;;;;;;5061954;28;20538;-57
2023/10/27 03:50:20;;;;;;;19.75;7.88;;;10.50;99.90;;;;;;5058124;28;20503;-58
2023/10/27 03:52:46;;;;;;;27.13;6.55;;;10.50;99.90;;;;;;5058594;28;20053;-59
2023/10/27 03:55:12;;;;;;;17.20;5.82;;;10.50;99.90;;;;;;5054936;28;20434;-59
2023/10/27 03:57:39;;;;;;;22.15;8.43;;;10.50;99.90;;;;;;5060452;28;20386;-57
2023/10/27 04:00:07;;;;;;;23.52;7.45;;;10.50;99.90;;;;;;5057599;28;20021;-56
2023/10/27 04:02:33;;;;;;;19.38;6.50;;;10.60;99.90;;;;;;5061420;28;20091;-58
2023/10/27 04:04:59;;;;;;;17.52;6.72;;;10.60;99.90;;;;;;5063881;28;20028;-57
2023/10/27 04:07:25;;;;;;;16.63;6.40;;;10.60;99.90;;;;;;5060672;28;20483;-52
2023/10/27 04:09:50;;;;;;;23.95;6.97;;;10.60;99.90;;;;;;5060441;28;20060;-58
2023/10/27 04:12:16;;;;;;;19.83;6.32;;;10.50;99.90;;;;;;5059250;28;20074;-57
2023/10/27 04:14:41;;;;;;;22.80;7.00;;;10.50;99.90;;;;;;5057273;28;20033;-58
2023/10/27 04:17:07;;;;;;;18.60;7.38;;;10.50;99.90;;;;;;5057313;28;20032;-58
2023/10/27 04:19:33;;;;;;;33.58;6.95;;;10.50;99.90;;;;;;5060753;28;20087;-58
2023/10/27 04:21:59;;;;;;;21.77;6.80;;;10.50;99.90;;;;;;5061293;28;20036;-56
2023/10/27 04:24:25;;;;;;;22.42;7.25;;;10.50;99.90;;;;;;5060476;28;20444;-57
2023/10/27 04:26:51;;;;;;;21.25;6.90;;;10.40;99.90;;;;;;5063528;28;20602;-57
2023/10/27 04:29:17;;;;;;;23.90;6.80;;;10.40;99.90;;;;;;5057089;28;20122;-59
2023/10/27 04:31:43;;;;;;;28.58;7.50;;;10.40;99.90;;;;;;5062701;28;20033;-55
2023/10/27 04:34:10;;;;;;;20.98;7.13;;;10.40;99.90;;;;;;5060661;28;20036;-57
2023/10/27 04:36:36;;;;;;;35.28;7.70;;;10.40;99.90;;;;;;5058330;28;20040;-59
2023/10/27 04:39:03;;;;;;;22.48;6.40;;;10.50;99.90;;;;;;5064921;28;20025;-56
2023/10/27 04:41:30;;;;;;;19.00;7.82;;;10.50;99.90;;;;;;5060534;28;20025;-58
2023/10/27 04:43:56;;;;;;;21.38;6.95;;;10.40;99.90;;;;;;5067973;28;20108;-59
2023/10/27 04:46:22;;;;;;;18.73;7.13;;;10.40;99.90;;;;;;5060964;28;20187;-58
2023/10/27 04:48:47;;;;;;;19.25;7.07;;;10.50;99.90;;;;;;5060651;28;20036;-57
2023/10/27 04:51:13;;;;;;;19.30;7.22;;;10.50;99.90;;;;;;5070311;28;20040;-59
2023/10/27 04:53:38;;;;;;;27.58;7.25;;;10.40;99.90;;;;;;5064821;28;20036;-60
2023/10/27 04:56:04;;;;;;;15.77;7.30;;;10.50;99.90;;;;;;5057064;28;20021;-55
2023/10/27 04:58:30;;;;;;;12.93;7.07;;;10.50;99.90;;;;;;5063059;28;20025;-59
2023/10/27 05:00:55;;;;;;;25.00;7.72;;;10.50;99.90;;;;;;5061290;28;20081;-57
2023/10/27 05:03:21;;;;;;;25.00;7.68;;;10.60;99.90;;;;;;5064496;28;20116;-57
2023/10/27 05:05:46;;;;;;;19.42;7.93;;;10.60;99.90;;;;;;5064826;28;20036;-58
2023/10/27 05:08:12;;;;;;;15.40;7.05;;;10.60;99.90;;;;;;5058073;28;20036;-57
2023/10/27 05:10:39;;;;;;;18.40;7.18;;;10.60;99.90;;;;;;5053048;28;20025;-58
2023/10/27 05:13:04;;;;;;;23.65;8.27;;;10.60;99.90;;;;;;5056762;28;20025;-58
2023/10/27 05:15:30;;;;;;;31.90;8.20;;;10.70;99.90;;;;;;5052989;28;20084;-59
2023/10/27 05:17:55;;;;;;;29.00;8.55;;;10.70;99.90;;;;;;5058548;28;20029;-59
2023/10/27 05:20:21;;;;;;;25.52;8.82;;;10.60;99.90;;;;;;5064312;28;20033;-56
2023/10/27 05:22:48;;;;;;;24.90;9.30;;;10.60;99.90;;;;;;5057254;28;20055;-59
2023/10/27 05:25:13;;;;;;;25.25;8.20;;;10.70;99.90;;;;;;5066127;28;20107;-59
2023/10/27 05:27:39;;;;;;;27.77;8.82;;;10.70;99.90;;;;;;5058926;28;20151;-59
2023/10/27 05:30:05;;;;;;;29.48;10.20;;;10.70;99.90;;;;;;5062211;28;20380;-59
2023/10/27 05:32:32;;;;;;;26.25;8.60;;;10.70;99.90;;;;;;5062219;28;20483;-58
2023/10/27 05:34:58;;;;;;;20.98;8.40;;;10.70;99.90;;;;;;5063086;28;20029;-58
2023/10/27 05:37:24;;;;;;;23.33;8.63;;;10.70;99.90;;;;;;5063195;28;20025;-58
2023/10/27 05:39:49;;;;;;;35.75;9.07;;;10.80;99.90;;;;;;5062266;28;20025;-59
2023/10/27 05:42:15;;;;;;;23.60;8.55;;;10.80;99.90;;;;;;5060201;28;20454;-58
2023/10/27 05:44:41;;;;;;;23.08;8.35;;;10.80;99.90;;;;;;5065843;28;20108;-56
2023/10/27 05:47:07;;;;;;;24.98;8.68;;;10.80;99.90;;;;;;5058371;28;20478;-60
2023/10/27 05:49:32;;;;;;;20.35;8.60;;;10.80;99.90;;;;;;5073423;28;20149;-59
2023/10/27 05:52:02;;;;;;;33.00;8.93;;;10.80;99.90;;;;;;5064089;28;20460;-59
2023/10/27 05:54:28;;;;;;;35.63;10.18;;;10.80;99.90;;;;;;5065643;28;20028;-59
2023/10/27 05:56:54;;;;;;;20.92;9.35;;;10.80;99.90;;;;;;5064635;28;20071;-58
2023/10/27 05:59:20;;;;;;;27.38;8.77;;;10.80;99.90;;;;;;5062828;28;20016;-58
2023/10/27 06:01:48;;;;;;;26.17;9.38;;;10.90;99.90;;;;;;5061077;28;20033;-58
2023/10/27 06:04:17;;;;;;;27.95;10.75;;;10.90;99.90;;;;;;5075561;28;20074;-58
2023/10/27 06:06:43;;;;;;;24.63;9.93;;;10.90;99.90;;;;;;5058249;28;20028;-58
2023/10/27 06:09:08;;;;;;;28.83;11.73;;;10.90;99.90;;;;;;5058517;28;20028;-57
2023/10/27 06:11:34;;;;;;;50.72;17.60;;;10.90;99.90;;;;;;5065902;28;20056;-58
2023/10/27 06:14:00;;;;;;;52.55;17.98;;;10.90;99.90;;;;;;5059721;28;20017;-52
2023/10/27 06:16:25;;;;;;;48.25;17.65;;;10.90;99.90;;;;;;5059576;28;20029;-52
2023/10/27 06:18:54;;;;;;;38.17;13.40;;;10.90;99.90;;;;;;5062094;28;20456;-56
2023/10/27 06:21:19;;;;;;;44.60;13.02;;;11.00;99.90;;;;;;5061647;28;20033;-55
2023/10/27 06:23:45;;;;;;;33.08;10.90;;;11.00;99.90;;;;;;5069727;28;20498;-53
2023/10/27 06:26:10;;;;;;;34.00;11.30;;;11.00;99.90;;;;;;5062840;28;20472;-59
2023/10/27 06:28:36;;;;;;;27.70;9.85;;;11.00;99.90;;;;;;5045198;28;20100;-56
2023/10/27 06:31:05;;;;;;;25.42;10.30;;;11.00;99.90;;;;;;5046898;28;20071;-57
2023/10/27 06:33:34;;;;;;;24.80;10.15;;;11.00;99.90;;;;;;5056835;28;20033;-58
2023/10/27 06:35:59;;;;;;;35.55;10.77;;;11.00;99.90;;;;;;5054376;28;20108;-59
2023/10/27 06:38:25;;;;;;;37.10;10.70;;;11.00;99.90;;;;;;5058947;28;20103;-56
2023/10/27 06:40:51;;;;;;;31.65;10.52;;;11.00;99.90;;;;;;5061983;28;20024;-57
2023/10/27 06:43:17;;;;;;;21.98;10.02;;;11.10;99.90;;;;;;5071225;28;20490;-55
2023/10/27 06:45:42;;;;;;;32.30;10.32;;;11.10;99.90;;;;;;5059339;28;20040;-59
2023/10/27 06:48:08;;;;;;;25.92;10.57;;;11.10;99.90;;;;;;5061850;28;20079;-57
2023/10/27 06:50:33;;;;;;;26.63;10.18;;;11.10;99.90;;;;;;5061545;28;20029;-59
2023/10/27 06:52:59;;;;;;;30.27;9.98;;;11.10;99.90;;;;;;5052902;28;20513;-53
2023/10/27 06:55:24;;;;;;;27.13;9.90;;;11.10;99.90;;;;;;5060635;28;20479;-53
2023/10/27 06:57:50;;;;;;;28.27;10.75;;;11.10;99.90;;;;;;5059124;28;20426;-57
2023/10/27 07:00:16;;;;;;;33.10;11.15;;;11.20;99.90;;;;;;5056693;28;20028;-57
2023/10/27 07:02:41;;;;;;;28.63;10.30;;;11.20;99.90;;;;;;5056658;28;20041;-57
2023/10/27 07:05:10;;;;;;;24.95;10.18;;;11.20;99.90;;;;;;5059612;28;20037;-55
2023/10/27 07:07:36;;;;;;;30.15;10.80;;;11.20;99.90;;;;;;5062150;28;20041;-56
2023/10/27 07:10:04;;;;;;;39.28;11.32;;;11.30;99.90;;;;;;5059670;28;20082;-59
2023/10/27 07:12:29;;;;;;;33.40;9.93;;;11.30;99.90;;;;;;5058802;28;20031;-58
2023/10/27 07:14:55;;;;;;;28.42;10.45;;;11.30;99.90;;;;;;5056799;28;20112;-58
2023/10/27 07:17:20;;;;;;;30.83;11.02;;;11.30;99.90;;;;;;5056685;28;20120;-57
2023/10/27 07:19:46;;;;;;;20.85;9.20;;;11.30;99.90;;;;;;5058508;28;20027;-57
2023/10/27 07:22:11;;;;;;;24.42;9.48;;;11.40;99.90;;;;;;5054950;28;20115;-54
2023/10/27 07:24:37;;;;;;;22.30;8.93;;;11.40;99.90;;;;;;5055647;28;20057;-55
2023/10/27 07:27:03;;;;;;;26.50;9.88;;;11.40;99.90;;;;;;5062451;28;20081;-56
2023/10/27 07:29:28;;;;;;;25.75;9.27;;;11.50;99.90;;;;;;5065406;28;20032;-57
2023/10/27 07:31:54;;;;;;;18.23;9.30;;;11.50;99.90;;;;;;5051095;28;20028;-56
2023/10/27 07:34:19;;;;;;;23.55;8.30;;;11.50;99.90;;;;;;5055034;28;20036;-59
2023/10/27 07:36:45;;;;;;;20.90;7.40;;;11.60;99.90;;;;;;5054892;28;20052;-56
2023/10/27 07:39:10;;;;;;;20.55;7.65;;;11.60;99.90;;;;;;5055230;28;20024;-57
2023/10/27 07:41:37;;;;;;;23.05;8.18;;;11.50;99.90;;;;;;5061161;28;20028;-59
2023/10/27 07:44:03;;;;;;;25.23;7.05;;;11.60;99.90;;;;;;5066921;28;20032;-59
2023/10/27 07:46:29;;;;;;;23.00;6.63;;;11.60;99.90;;;;;;5058899;28;21425;-59
2023/10/27 07:48:54;;;;;;;18.77;6.70;;;11.60;99.90;;;;;;5065015;28;20060;-59
2023/10/27 07:51:20;;;;;;;20.05;6.47;;;11.60;99.90;;;;;;5055850;28;20398;-58
2023/10/27 07:53:46;;;;;;;18.30;5.78;;;11.60;99.90;;;;;;5076099;28;20032;-58
2023/10/27 07:56:11;;;;;;;24.17;5.65;;;11.60;99.90;;;;;;5070400;28;20047;-59
2023/10/27 07:58:37;;;;;;;14.20;6.45;;;11.60;99.90;;;;;;5080447;28;20132;-59
2023/10/27 08:01:05;;;;;;;17.65;6.10;;;11.60;99.90;;;;;;5065229;28;20032;-54
2023/10/27 08:03:32;;;;;;;17.83;6.03;;;11.60;99.90;;;;;;5075368;28;20424;-57
2023/10/27 08:05:58;;;;;;;14.68;5.50;;;11.70;99.90;;;;;;5061357;28;20024;-57
2023/10/27 08:08:23;;;;;;;13.32;5.18;;;11.70;99.90;;;;;;5072965;28;20032;-59
2023/10/27 08:10:49;;;;;;;11.93;6.28;;;11.70;99.90;;;;;;5076001;28;20494;-58
2023/10/27 08:13:20;;;;;;;18.77;6.10;;;11.70;99.90;;;;;;5070967;28;20033;-58
2023/10/27 08:15:46;;;;;;;21.13;6.72;;;11.70;99.90;;;;;;5080631;28;20366;-59
2023/10/27 08:18:13;;;;;;;17.75;6.95;;;11.70;99.90;;;;;;5068467;28;20078;-58
2023/10/27 08:20:39;;;;;;;17.60;7.88;;;11.80;99.90;;;;;;5074379;28;20421;-57
2023/10/27 08:23:04;;;;;;;18.63;7.80;;;11.80;99.90;;;;;;5071519;28;20024;-55
2023/10/27 08:25:30;;;;;;;16.88;8.13;;;11.80;99.90;;;;;;5064979;28;20482;-52
2023/10/27 08:27:55;;;;;;;20.50;7.75;;;11.80;99.90;;;;;;5067481;28;20442;-59
2023/10/27 08:30:21;;;;;;;13.15;5.88;;;11.80;99.90;;;;;;5067656;28;20024;-57
2023/10/27 08:32:46;;;;;;;15.88;6.20;;;11.90;99.90;;;;;;5075722;28;20075;-59
2023/10/27 08:35:12;;;;;;;15.88;6.00;;;11.90;99.90;;;;;;5079028;28;20020;-57
2023/10/27 08:37:37;;;;;;;12.52;5.82;;;11.90;99.90;;;;;;5070359;28;20378;-59
2023/10/27 08:40:03;;;;;;;14.00;6.00;;;11.90;99.90;;;;;;5066289;28;20031;-59
2023/10/27 08:42:32;;;;;;;14.55;5.80;;;11.90;99.90;;;;;;5067991;28;20386;-58
2023/10/27 08:44:59;;;;;;;9.73;4.10;;;11.80;99.90;;;;;;5079592;28;20089;-57
2023/10/27 08:47:26;;;;;;;13.73;4.63;;;11.90;99.90;;;;;;5065783;28;20028;-59
2023/10/27 08:49:51;;;;;;;13.38;4.35;;;11.90;99.90;;;;;;5078353;28;20047;-57
2023/10/27 08:52:18;;;;;;;7.10;4.25;;;11.90;99.90;;;;;;5069935;28;20032;-56
2023/10/27 08:54:45;;;;;;;8.90;3.92;;;12.00;99.90;;;;;;5068505;28;20107;-58
2023/10/27 08:57:11;;;;;;;7.75;3.50;;;12.00;99.90;;;;;;5064224;28;20092;-58
2023/10/27 08:59:37;;;;;;;6.45;3.65;;;12.00;99.90;;;;;;5068798;28;20158;-56
2023/10/27 09:02:04;;;;;;;6.85;3.45;;;12.00;99.90;;;;;;5072076;28;20034;-59
2023/10/27 09:04:31;;;;;;;7.55;3.13;;;12.00;99.90;;;;;;5080080;28;20025;-55
2023/10/27 09:06:57;;;;;;;7.65;3.40;;;12.10;99.90;;;;;;5070136;28;20047;-56
2023/10/27 09:09:23;;;;;;;13.15;3.00;;;12.00;99.90;;;;;;5069467;28;20029;-57
2023/10/27 09:11:49;;;;;;;7.45;3.47;;;12.00;99.90;;;;;;5068793;28;20429;-57
2023/10/27 09:14:26;;;;;;;6.85;2.95;;;12.00;99.90;;;;;;5066416;28;20020;-57
2023/10/27 09:17:07;;;;;;;8.32;2.83;;;12.00;99.90;;;;;;5067751;28;20390;-57
2023/10/27 09:19:33;;;;;;;7.28;3.08;;;12.00;99.90;;;;;;5066969;28;20040;-59
2023/10/27 09:21:59;;;;;;;7.45;2.70;;;12.00;99.90;;;;;;5063992;28;20485;-58
2023/10/27 09:24:27;;;;;;;4.93;2.10;;;12.00;99.90;;;;;;5069644;28;20103;-58
2023/10/27 09:26:53;;;;;;;8.82;2.97;;;12.00;99.90;;;;;;5062561;28;20124;-59
2023/10/27 09:29:20;;;;;;;5.07;2.80;;;12.00;99.90;;;;;;5067417;28;20017;-59
2023/10/27 09:31:45;;;;;;;8.68;2.90;;;12.00;99.90;;;;;;5062319;28;20528;-50
2023/10/27 09:34:25;;;;;;;8.57;2.83;;;12.00;99.90;;;;;;5060879;28;20033;-59
2023/10/27 09:36:52;;;;;;;10.63;3.05;;;12.10;99.90;;;;;;5063891;28;20027;-57
2023/10/27 09:39:24;;;;;;;6.68;2.63;;;12.10;99.90;;;;;;5059850;28;20065;-58
2023/10/27 09:42:03;;;;;;;11.00;2.85;;;12.00;99.90;;;;;;5059955;28;20028;-59
2023/10/27 09:44:39;;;;;;;10.55;2.72;;;12.00;99.90;;;;;;5061822;28;20024;-59
2023/10/27 09:47:18;;;;;;;13.63;2.50;;;12.00;99.90;;;;;;5061733;28;20391;-58
2023/10/27 09:49:51;;;;;;;14.95;2.30;;;12.10;99.90;;;;;;5068008;28;20036;-59
2023/10/27 09:52:19;;;;;;;9.60;2.13;;;12.20;99.90;;;;;;5069385;28;20133;-59
2023/10/27 09:54:46;;;;;;;9.15;1.75;;;12.20;99.90;;;;;;5068508;28;20477;-58
2023/10/27 09:57:13;;;;;;;6.80;1.80;;;12.20;99.90;;;;;;5073130;28;20052;-58
2023/10/27 09:59:40;;;;;;;5.63;1.52;;;12.30;99.90;;;;;;5073410;28;20033;-57
2023/10/27 10:02:07;;;;;;;6.10;1.98;;;12.30;99.90;;;;;;5067000;28;20083;-58
2023/10/27 10:05:00;;;;;;;4.80;1.85;;;12.30;99.90;;;;;;5064810;28;20028;-59
2023/10/27 10:07:44;;;;;;;7.90;2.00;;;12.40;99.90;;;;;;5063394;28;20071;-58
2023/10/27 10:10:34;;;;;;;7.60;2.42;;;12.40;99.90;;;;;;5073767;28;20104;-54
2023/10/27 10:13:01;;;;;;;5.53;2.30;;;12.40;99.90;;;;;;5063499;28;20021;-58
2023/10/27 10:15:34;;;;;;;6.38;2.45;;;12.50;99.90;;;;;;5067970;28;20025;-59
2023/10/27 10:18:05;;;;;;;4.35;2.40;;;12.60;99.90;;;;;;5059028;28;20029;-58
2023/10/27 10:20:49;;;;;;;5.10;2.10;;;12.60;99.90;;;;;;5067742;28;20111;-59
2023/10/27 10:23:16;;;;;;;5.73;2.60;;;12.70;99.90;;;;;;5068317;28;20016;-57
2023/10/27 10:25:52;;;;;;;4.85;2.28;;;12.80;99.90;;;;;;5074705;28;20024;-57
2023/10/27 10:28:17;;;;;;;11.02;4.22;;;12.90;99.90;;;;;;5070646;28;20024;-59
2023/10/27 10:30:46;;;;;;;7.90;3.35;;;12.80;99.90;;;;;;5069932;28;20394;-58
2023/10/27 10:33:22;;;;;;;16.73;4.50;;;12.80;99.90;;;;;;5061772;28;20611;-59
2023/10/27 10:35:49;;;;;;;10.98;5.18;;;12.70;99.90;;;;;;5064055;28;20449;-59
2023/10/27 10:38:23;;;;;;;13.20;4.85;;;12.70;99.90;;;;;;5061283;28;20100;-59
2023/10/27 10:40:49;;;;;;;12.55;5.78;;;12.70;99.90;;;;;;5064895;28;20021;-59
2023/10/27 10:43:29;;;;;;;13.07;5.50;;;12.70;99.90;;;;;;5063200;28;20500;-58
2023/10/27 10:45:58;;;;;;;19.08;6.45;;;12.70;99.90;;;;;;5066866;28;20052;-59
2023/10/27 10:48:25;;;;;;;22.77;8.20;;;12.70;99.90;;;;;;5072533;28;20023;-59
2023/10/27 10:50:53;;;;;;;20.40;8.80;;;12.70;99.90;;;;;;5067345;28;20066;-59
2023/10/27 10:53:21;;;;;;;18.08;8.50;;;12.70;99.90;;;;;;5069164;28;20020;-58
2023/10/27 10:55:51;;;;;;;15.98;8.15;;;12.80;99.90;;;;;;5064235;28;20021;-59
2023/10/27 10:58:27;;;;;;;24.75;9.13;;;12.90;99.90;;;;;;5062946;28;20108;-59
2023/10/27 11:00:53;;;;;;;18.02;6.78;;;13.00;99.90;;;;;;5066440;28;20098;-58
2023/10/27 11:03:21;;;;;;;18.27;6.55;;;13.10;99.90;;;;;;5067935;28;20395;-59
2023/10/27 11:05:47;;;;;;;22.60;6.38;;;13.20;99.90;;;;;;5071995;28;20020;-60
2023/10/27 11:08:26;;;;;;;9.20;4.80;;;13.30;99.90;;;;;;5070917;28;20025;-59
2023/10/27 11:11:02;;;;;;;11.48;4.75;;;13.20;99.90;;;;;;5075578;28;20069;-57
2023/10/27 11:13:29;;;;;;;12.30;4.00;;;13.20;99.90;;;;;;5062818;28;20021;-59
2023/10/27 11:15:55;;;;;;;6.18;3.55;;;13.20;99.90;;;;;;5062878;28;20555;-58
2023/10/27 11:18:21;;;;;;;9.20;3.60;;;13.20;99.90;;;;;;5065566;28;20465;-58
2023/10/27 11:20:48;;;;;;;11.65;3.03;;;13.10;99.90;;;;;;5068991;28;20025;-59
2023/10/27 11:23:17;;;;;;;8.27;3.58;;;13.10;99.90;;;;;;5066224;28;20040;-59
2023/10/27 11:25:44;;;;;;;14.32;3.65;;;13.20;99.90;;;;;;5069366;28;20104;-58
2023/10/27 11:28:17;;;;;;;16.55;3.42;;;13.20;99.90;;;;;;5061373;28;20479;-55
2023/10/27 11:30:42;;;;;;;11.13;2.00;;;13.10;99.90;;;;;;5063030;28;20071;-55
2023/10/27 11:33:08;;;;;;;13.43;3.28;;;13.10;99.90;;;;;;5071973;28;20466;-58
2023/10/27 11:35:44;;;;;;;12.88;2.63;;;13.10;99.90;;;;;;5066012;28;20021;-58
2023/10/27 11:38:10;;;;;;;10.32;2.22;;;13.00;99.90;;;;;;5071147;28;20020;-58
2023/10/27 11:40:35;;;;;;;21.80;3.92;;;13.00;99.90;;;;;;5070769;28;20604;-58
2023/10/27 11:43:01;;;;;;;9.80;2.50;;;13.00;99.90;;;;;;5062618;28;20036;-57
2023/10/27 11:45:26;;;;;;;10.48;2.97;;;12.90;99.90;;;;;;5062469;28;20068;-59
2023/10/27 11:47:52;;;;;;;10.57;2.60;;;12.90;99.90;;;;;;5062058;28;20111;-59
2023/10/27 11:50:17;;;;;;;12.20;2.70;;;12.90;99.90;;;;;;5059498;28;20059;-59
2023/10/27 11:52:43;;;;;;;7.43;2.45;;;12.80;99.90;;;;;;5060942;28;20497;-59
2023/10/27 11:55:08;;;;;;;14.95;3.30;;;12.90;99.90;;;;;;5055551;28;20017;-59
2023/10/27 11:57:34;;;;;;;12.82;2.85;;;12.90;99.90;;;;;;5060861;28;20044;-57
2023/10/27 12:00:00;;;;;;;12.18;3.30;;;12.90;99.90;;;;;;5054130;28;20028;-59
2023/10/27 12:02:25;;;;;;;16.25;2.88;;;13.00;99.90;;;;;;5059165;28;20055;-58
2023/10/27 12:04:51;;;;;;;13.60;3.13;;;13.00;99.90;;;;;;5061446;28;20115;-56
2023/10/27 12:07:17;;;;;;;15.30;3.42;;;13.10;99.90;;;;;;5064895;28;20036;-57
2023/10/27 12:09:43;;;;;;;18.30;3.28;;;13.10;99.90;;;;;;5061677;28;20028;-58
2023/10/27 12:12:09;;;;;;;11.18;3.75;;;13.10;99.90;;;;;;5063009;28;20024;-59
2023/10/27 12:14:35;;;;;;;7.50;3.10;;;13.10;99.90;;;;;;5065616;28;20029;-60
2023/10/27 12:17:00;;;;;;;18.95;3.83;;;13.10;99.90;;;;;;5065446;28;20120;-57
2023/10/27 12:19:29;;;;;;;14.38;4.15;;;13.10;99.90;;;;;;5064241;28;20426;-58
2023/10/27 12:21:55;;;;;;;12.13;3.60;;;13.10;99.90;;;;;;5066127;28;20153;-55
2023/10/27 12:24:21;;;;;;;17.58;4.05;;;13.10;99.90;;;;;;5062600;28;20025;-59
2023/10/27 12:26:46;;;;;;;17.05;3.95;;;13.00;99.90;;;;;;5064879;28;20093;-60
2023/10/27 12:29:12;;;;;;;14.63;2.95;;;13.00;99.90;;;;;;5063259;28;20040;-59
2023/10/27 12:31:37;;;;;;;11.38;3.30;;;12.90;99.90;;;;;;5060735;28;20033;-57
2023/10/27 12:34:03;;;;;;;11.13;2.97;;;12.80;99.90;;;;;;5059287;28;20029;-55
2023/10/27 12:36:29;;;;;;;13.48;2.83;;;12.80;99.90;;;;;;5062828;28;20020;-57